Detall de PIREP

Printer-friendly versionPDF version

[2008/12/28 08:38:00]
Flight IATA:CT1020
Pilot Number:026
Company ICAO:CAT
Aircraft Type:B75F/E
PAX:0
Departing Airport: KBFI
Destination Airport: KEWR
Alternate Airport:KPHL
Online: VATSIM
Route:NORMY J12 BLUIT J90 RWF J34 CRL J584 SLT
Flight Level:FL330
No Slew and time accel
No pause
Crash detect
Detect pilot in Cockpit between each 30 and 45 minutes
08:38 Zero fuel Weight: 196081 Lbs, Fuel Weight: 52998 Lbs
08:38 VATSIM:KBFI 280753Z 18006KT 10SM -RA SCT030 OVC036 05/03 A2982 RMK AO2 RAB0659 SLP097 P0002 T00500033 400780017
08:38 VATSIM:KEWR 280801Z 21003KT 1/8SM R04R/1800V2600FT FG OVC003 07/07 A3007 RMK AO2 SFC VIS 1/2
08:38 VOICE CATALONIAN / BOEING TRANSPORT
08:41 Parking Brakes off
08:47 Take-off
08:47 Take off Weight: 248108 Lbs
08:47 Wind: 170º @ 004 Knots Heading: 151º
08:47 POS N47º 31´ 32´´ W122º 17´ 56´´
08:47 Flaps:3 at 179 Knots
08:47 Gear Up: 184
Knots
08:47 Flaps:2 at 178 Knots
08:48 Flaps:1 at 201 Knots
08:49 Flaps:0 at 242 Knots
09:02 Wind:104º@000 Knots Heading: 104º Ground Speed: 422 Knots Altitude 29429 ft
09:09 TOC
09:09 Fuel Weight: 46030 Lb
09:17 Wind:192º@038 Knots Heading: 100º Ground Speed: 469 Knots Altitude 32831 ft
09:32 Wind:101º@017 Knots Heading: 097º Ground Speed: 442 Knots Altitude 32874 ft
09:47 Wind:050º@012 Knots Heading: 098º Ground Speed: 450 Knots Altitude 32828 ft
10:02 Wind:239º@062 Knots Heading: 097º Ground Speed: 512 Knots Altitude 32805 ft
10:17 Wind:269º@048 Knots Heading: 095º Ground Speed: 508 Knots Altitude 32769 ft
10:32 Wind:265º@044 Knots Heading: 101º Ground Speed: 495 Knots Altitude 32759 ft
10:47 Wind:122º@011 Knots Heading: 102º Ground Speed: 431 Knots Altitude 32759 ft
11:02 Wind:178º@022 Knots Heading: 114º Ground Speed: 427 Knots Altitude 32834 ft
11:17 Wind:
245º@015 Knots Heading: 114º Ground Speed: 450 Knots Altitude 32887 ft
11:32 Wind:278º@046 Knots Heading: 102º Ground Speed: 487 Knots Altitude 32880 ft
11:47 Wind:262º@056 Knots Heading: 109º Ground Speed: 498 Knots Altitude 32791 ft
12:02 Wind:258º@074 Knots Heading: 102º Ground Speed: 516 Knots Altitude 32788 ft
12:17 Wind:252º@073 Knots Heading: 122º Ground Speed: 500 Knots Altitude 32759 ft
12:32 Wind:253º@086 Knots Heading: 101º Ground Speed: 523 Knots Altitude 35889 ft
12:47 Wind:189º@052 Knots Heading: 105º Ground Speed: 460 Knots Altitude 36761 ft
12:58 TOD
12:58 Fuel Weight: 13413 Lb
13:02 Wind:143º@016 Knots Heading: 110º Ground Speed: 410 Knots Altitude 25977 ft
13:17 Wind:239º@010 Knots Heading: 085º Ground Speed: 266 Knots Altitude 6043 ft
13:26 Flaps:1 at 198 Knots
13:26 Gear Down: 201 Knots
13:26 Flaps:2 at 201 Knots
13:26 Flaps:3 at 213 Knots
13:
26 Flaps:2 at 198 Knots
13:27 Gear Up: 194 Knots
13:27 Flaps:1 at 132 Knots
13:28 Flaps:0 at 179 Knots
13:32 Wind:229º@018 Knots Heading: 279º Ground Speed: 191 Knots Altitude 4038 ft
13:43 Gear Down: 182 Knots
13:43 Flaps:2 at 182 Knots
13:44 Flaps:3 at 178 Knots
13:44 Flaps:4 at 178 Knots
13:44 Flaps:5 at 174 Knots
13:45 TouchDown:Rate -575 ft/min Speed: 163 Knots
13:45 VATSIM:KEWR 281251Z 23019G26KT 9SM BKN018 BKN023 15/12 A2998 RMK AO2 PK WND 22026/1243 SLP151 P0002 T01500122
13:45 Land
13:45 Wind:243º@013 Knots
13:45 Heading: 207º
13:45 Flight Duration: 04:58
13:45 Landing Weight: 204729 Lbs
13:45 POS N40º 40´ 51´´ W074º 10´ 20´´
13:52 Parking brakes on
13:52 Block to Block Duration: 05:11
13:52 Final Fuel: 7951 Lbls
13:52 Spent Fuel: 45046 Lbls
13:52 Flight Length: 2179 NM
13:52 TOD Land Length: 217 NM

Exportar CSV

Powered by Drupal - Modified by Danger4k